JJP404 RJOM-RJAA
Flight info
| Callsign | JJP404 |
|---|---|
| Flight time | 1h 14m |
| Altitude | 37000 |
| Route | SAKAR KRE V37 PADOC Y43 ISEBI Y81 RUTAS |
| Aircraft | A320/M-SDE3FGHIRWY/LB1 |
Departure
| Time | 2026-04-18 07:43 |
|---|---|
| Airport | Matsuyama Airport (RJOM) |
Arrival
| Time | 2026-04-18 08:58 |
|---|---|
| Airport | Narita International Airport (RJAA) |
| Time | Latitude | Longitude | Altitude | Speed | Heading |
|---|---|---|---|---|---|
| 2026-04-18 07:04 | 33.82799 | 132.70421 | 25 ft | 0 kts | 40° |
| 2026-04-18 07:31 | 33.82799 | 132.70420 | 27 ft | 0 kts | 40° |
| 2026-04-18 07:34 | 33.82786 | 132.70407 | 29 ft | 4 kts | 41° |
| 2026-04-18 07:34 | 33.82766 | 132.70387 | 26 ft | 4 kts | 46° |
| 2026-04-18 07:34 | 33.82755 | 132.70362 | 26 ft | 4 kts | 94° |
| 2026-04-18 07:35 | 33.82763 | 132.70333 | 26 ft | 4 kts | 129° |
| 2026-04-18 07:35 | 33.82767 | 132.70327 | 30 ft | 0 kts | 131° |
| 2026-04-18 07:38 | 33.82759 | 132.70333 | 26 ft | 2 kts | 155° |
| 2026-04-18 07:38 | 33.82734 | 132.70343 | 29 ft | 5 kts | 163° |
| 2026-04-18 07:39 | 33.82691 | 132.70354 | 27 ft | 8 kts | 171° |
| 2026-04-18 07:39 | 33.82635 | 132.70390 | 28 ft | 11 kts | 134° |
| 2026-04-18 07:39 | 33.82584 | 132.70465 | 25 ft | 13 kts | 129° |
| 2026-04-18 07:39 | 33.82520 | 132.70554 | 25 ft | 15 kts | 130° |
| 2026-04-18 07:40 | 33.82444 | 132.70661 | 27 ft | 18 kts | 130° |
| 2026-04-18 07:40 | 33.82374 | 132.70759 | 28 ft | 11 kts | 131° |
| 2026-04-18 07:40 | 33.82323 | 132.70830 | 25 ft | 13 kts | 130° |
| 2026-04-18 07:40 | 33.82260 | 132.70919 | 28 ft | 15 kts | 130° |
| 2026-04-18 07:41 | 33.82200 | 132.71001 | 29 ft | 12 kts | 133° |
| 2026-04-18 07:41 | 33.82120 | 132.71013 | 26 ft | 11 kts | 190° |
| 2026-04-18 07:41 | 33.82099 | 132.71009 | 25 ft | 0 kts | 190° |
| 2026-04-18 07:42 | 33.82095 | 132.71008 | 25 ft | 2 kts | 190° |
| 2026-04-18 07:42 | 33.82070 | 132.70997 | 26 ft | 6 kts | 208° |
| 2026-04-18 07:42 | 33.82042 | 132.70943 | 23 ft | 10 kts | 261° |
| 2026-04-18 07:42 | 33.82077 | 132.70868 | 26 ft | 11 kts | 312° |
| 2026-04-18 07:43 | 33.82174 | 132.70735 | 26 ft | 48 kts | 310° |
| 2026-04-18 07:43 | 33.82551 | 132.70206 | 23 ft | 115 kts | 311° |
| 2026-04-18 07:43 | 33.83178 | 132.69322 | 30 ft | 162 kts | 308° |
| 2026-04-18 07:43 | 33.83912 | 132.68311 | 634 ft | 158 kts | 306° |
| 2026-04-18 07:44 | 33.84300 | 132.67127 | 1250 ft | 155 kts | 262° |
| 2026-04-18 07:44 | 33.83781 | 132.66015 | 1840 ft | 159 kts | 222° |
| 2026-04-18 07:44 | 33.82750 | 132.65366 | 2143 ft | 180 kts | 187° |
| 2026-04-18 07:44 | 33.81466 | 132.65580 | 2494 ft | 196 kts | 164° |
| 2026-04-18 07:45 | 33.80050 | 132.66024 | 2702 ft | 225 kts | 165° |
| 2026-04-18 07:45 | 33.78444 | 132.66481 | 3123 ft | 249 kts | 167° |
| 2026-04-18 07:45 | 33.76681 | 132.66963 | 3681 ft | 268 kts | 167° |
| 2026-04-18 07:45 | 33.74844 | 132.67457 | 4641 ft | 272 kts | 167° |
| 2026-04-18 07:46 | 33.72989 | 132.67952 | 5583 ft | 275 kts | 166° |
| 2026-04-18 07:46 | 33.71112 | 132.68452 | 6543 ft | 277 kts | 166° |
| 2026-04-18 07:46 | 33.69244 | 132.68955 | 7353 ft | 283 kts | 165° |
| 2026-04-18 07:46 | 33.67363 | 132.69694 | 8162 ft | 288 kts | 153° |
| 2026-04-18 07:47 | 33.65657 | 132.70982 | 8968 ft | 293 kts | 141° |
| 2026-04-18 07:47 | 33.64030 | 132.72490 | 9738 ft | 297 kts | 141° |
| 2026-04-18 07:47 | 33.62365 | 132.74024 | 10332 ft | 311 kts | 141° |
| 2026-04-18 07:47 | 33.60604 | 132.75690 | 10576 ft | 334 kts | 136° |
| 2026-04-18 07:48 | 33.59040 | 132.77816 | 11060 ft | 345 kts | 123° |
| 2026-04-18 07:48 | 33.57898 | 132.80379 | 11722 ft | 350 kts | 110° |
| 2026-04-18 07:48 | 33.57275 | 132.83221 | 12381 ft | 354 kts | 96° |
| 2026-04-18 07:48 | 33.57132 | 132.86175 | 13050 ft | 359 kts | 90° |
| 2026-04-18 07:49 | 33.57041 | 132.89206 | 13723 ft | 365 kts | 91° |
| 2026-04-18 07:49 | 33.56939 | 132.92277 | 14319 ft | 371 kts | 91° |
| 2026-04-18 07:49 | 33.56831 | 132.95372 | 14925 ft | 375 kts | 91° |
| 2026-04-18 07:49 | 33.56723 | 132.98482 | 15513 ft | 379 kts | 91° |
| 2026-04-18 07:50 | 33.56611 | 133.01698 | 16091 ft | 383 kts | 92° |
| 2026-04-18 07:50 | 33.56500 | 133.04906 | 16675 ft | 387 kts | 92° |
| 2026-04-18 07:50 | 33.56391 | 133.08112 | 17259 ft | 392 kts | 92° |
| 2026-04-18 07:50 | 33.56279 | 133.11395 | 17859 ft | 395 kts | 92° |
| 2026-04-18 07:51 | 33.56167 | 133.14699 | 18422 ft | 400 kts | 93° |
| 2026-04-18 07:51 | 33.56054 | 133.18043 | 18924 ft | 404 kts | 92° |
| 2026-04-18 07:51 | 33.55935 | 133.21440 | 19420 ft | 409 kts | 92° |
| 2026-04-18 07:51 | 33.55813 | 133.24865 | 19914 ft | 414 kts | 93° |
| 2026-04-18 07:52 | 33.55684 | 133.28342 | 20406 ft | 419 kts | 93° |
| 2026-04-18 07:52 | 33.55549 | 133.31841 | 20881 ft | 424 kts | 93° |
| 2026-04-18 07:52 | 33.55414 | 133.35403 | 21334 ft | 429 kts | 93° |
| 2026-04-18 07:52 | 33.55280 | 133.38999 | 21775 ft | 434 kts | 92° |
| 2026-04-18 07:53 | 33.55149 | 133.42635 | 22213 ft | 438 kts | 92° |
| 2026-04-18 07:53 | 33.55018 | 133.46242 | 22645 ft | 443 kts | 92° |
| 2026-04-18 07:53 | 33.54880 | 133.49999 | 23084 ft | 448 kts | 92° |
| 2026-04-18 07:53 | 33.54740 | 133.53709 | 23521 ft | 452 kts | 92° |
| 2026-04-18 07:54 | 33.54594 | 133.57549 | 23903 ft | 456 kts | 92° |
| 2026-04-18 07:54 | 33.54451 | 133.61314 | 24291 ft | 459 kts | 93° |
| 2026-04-18 07:54 | 33.54300 | 133.65158 | 24677 ft | 462 kts | 93° |
| 2026-04-18 07:54 | 33.54146 | 133.69014 | 25067 ft | 465 kts | 94° |
| 2026-04-18 07:55 | 33.53983 | 133.72908 | 25455 ft | 468 kts | 94° |
| 2026-04-18 07:55 | 33.53815 | 133.76804 | 25849 ft | 471 kts | 94° |
| 2026-04-18 07:55 | 33.53642 | 133.80725 | 26240 ft | 474 kts | 94° |
| 2026-04-18 07:55 | 33.53465 | 133.84691 | 26619 ft | 477 kts | 95° |
| 2026-04-18 07:56 | 33.53286 | 133.88671 | 27000 ft | 480 kts | 95° |
| 2026-04-18 07:56 | 33.53107 | 133.92681 | 27384 ft | 482 kts | 95° |
| 2026-04-18 07:56 | 33.52926 | 133.96706 | 27761 ft | 485 kts | 95° |
| 2026-04-18 07:56 | 33.52744 | 134.00740 | 28135 ft | 488 kts | 95° |
| 2026-04-18 07:57 | 33.52559 | 134.04829 | 28486 ft | 492 kts | 95° |
| 2026-04-18 07:57 | 33.52374 | 134.08932 | 28845 ft | 496 kts | 95° |
| 2026-04-18 07:57 | 33.52186 | 134.13081 | 29221 ft | 499 kts | 96° |
| 2026-04-18 07:57 | 33.51994 | 134.17236 | 29565 ft | 502 kts | 96° |
| 2026-04-18 07:58 | 33.51601 | 134.25650 | 30221 ft | 509 kts | 96° |
| 2026-04-18 07:58 | 33.51229 | 134.33491 | 30670 ft | 517 kts | 96° |
| 2026-04-18 07:59 | 33.51021 | 134.37821 | 30917 ft | 521 kts | 96° |
| 2026-04-18 07:59 | 33.50816 | 134.42186 | 31175 ft | 525 kts | 96° |
| 2026-04-18 07:59 | 33.50626 | 134.46564 | 31401 ft | 530 kts | 96° |
| 2026-04-18 07:59 | 33.50441 | 134.51000 | 31652 ft | 533 kts | 96° |
| 2026-04-18 08:00 | 33.50257 | 134.55435 | 31994 ft | 535 kts | 96° |
| 2026-04-18 08:00 | 33.50069 | 134.59843 | 32314 ft | 537 kts | 96° |
| 2026-04-18 08:00 | 33.49872 | 134.64332 | 32608 ft | 539 kts | 97° |
| 2026-04-18 08:00 | 33.49673 | 134.68819 | 32926 ft | 541 kts | 97° |
| 2026-04-18 08:01 | 33.49472 | 134.73343 | 33270 ft | 543 kts | 97° |
| 2026-04-18 08:01 | 33.49272 | 134.77872 | 33612 ft | 545 kts | 97° |
| 2026-04-18 08:01 | 33.49074 | 134.82418 | 33963 ft | 547 kts | 97° |
| 2026-04-18 08:01 | 33.48873 | 134.86991 | 34302 ft | 549 kts | 97° |
| 2026-04-18 08:02 | 33.48669 | 134.91541 | 34592 ft | 550 kts | 97° |
| 2026-04-18 08:02 | 33.48460 | 134.96130 | 34922 ft | 550 kts | 97° |
| 2026-04-18 08:02 | 33.48250 | 135.00714 | 35258 ft | 550 kts | 97° |
| 2026-04-18 08:02 | 33.48043 | 135.05285 | 35598 ft | 549 kts | 97° |
| 2026-04-18 08:03 | 33.47839 | 135.09854 | 35940 ft | 549 kts | 97° |
| 2026-04-18 08:03 | 33.47638 | 135.14420 | 36266 ft | 548 kts | 97° |
| 2026-04-18 08:03 | 33.47436 | 135.18981 | 36634 ft | 546 kts | 98° |
| 2026-04-18 08:03 | 33.47235 | 135.23461 | 36935 ft | 546 kts | 98° |
| 2026-04-18 08:04 | 33.47024 | 135.28056 | 37028 ft | 546 kts | 98° |
| 2026-04-18 08:04 | 33.46604 | 135.37069 | 37035 ft | 545 kts | 98° |
| 2026-04-18 08:05 | 33.46218 | 135.46133 | 37036 ft | 546 kts | 97° |
| 2026-04-18 08:05 | 33.45844 | 135.55209 | 37047 ft | 545 kts | 97° |
| 2026-04-18 08:06 | 33.45461 | 135.64276 | 37039 ft | 545 kts | 98° |
| 2026-04-18 08:06 | 33.45057 | 135.73333 | 37049 ft | 545 kts | 98° |
| 2026-04-18 08:07 | 33.45398 | 135.82431 | 37052 ft | 552 kts | 81° |
| 2026-04-18 08:07 | 33.47126 | 135.91412 | 37051 ft | 553 kts | 78° |
| 2026-04-18 08:08 | 33.48900 | 136.00350 | 37038 ft | 554 kts | 78° |
| 2026-04-18 08:08 | 33.50660 | 136.09331 | 37057 ft | 554 kts | 78° |
| 2026-04-18 08:09 | 33.52405 | 136.18335 | 37062 ft | 554 kts | 78° |
| 2026-04-18 08:09 | 33.54139 | 136.27336 | 37060 ft | 554 kts | 78° |
| 2026-04-18 08:10 | 33.55878 | 136.36346 | 37058 ft | 554 kts | 78° |
| 2026-04-18 08:10 | 33.57612 | 136.45344 | 37056 ft | 554 kts | 78° |
| 2026-04-18 08:11 | 33.59332 | 136.54313 | 37050 ft | 554 kts | 78° |
| 2026-04-18 08:11 | 33.61044 | 136.63313 | 37054 ft | 554 kts | 78° |
| 2026-04-18 08:12 | 33.62754 | 136.72342 | 37048 ft | 554 kts | 78° |
| 2026-04-18 08:12 | 33.64458 | 136.81370 | 37038 ft | 554 kts | 78° |
| 2026-04-18 08:13 | 33.66150 | 136.90396 | 37046 ft | 554 kts | 78° |
| 2026-04-18 08:13 | 33.67836 | 136.99417 | 37062 ft | 554 kts | 78° |
| 2026-04-18 08:14 | 33.69527 | 137.08473 | 37052 ft | 554 kts | 79° |
| 2026-04-18 08:14 | 33.70280 | 137.17576 | 37049 ft | 551 kts | 91° |
| 2026-04-18 08:15 | 33.70558 | 137.26755 | 37047 ft | 551 kts | 91° |
| 2026-04-18 08:15 | 33.70831 | 137.35972 | 37048 ft | 551 kts | 91° |
| 2026-04-18 08:16 | 33.71099 | 137.45171 | 37051 ft | 551 kts | 91° |
| 2026-04-18 08:16 | 33.71366 | 137.54375 | 37061 ft | 550 kts | 91° |
| 2026-04-18 08:17 | 33.71620 | 137.63546 | 37068 ft | 550 kts | 91° |
| 2026-04-18 08:17 | 33.71863 | 137.72748 | 37046 ft | 550 kts | 91° |
| 2026-04-18 08:18 | 33.72107 | 137.81878 | 37047 ft | 551 kts | 91° |
| 2026-04-18 08:18 | 33.72340 | 137.91076 | 37043 ft | 551 kts | 91° |
| 2026-04-18 08:19 | 33.72560 | 138.00272 | 37056 ft | 550 kts | 91° |
| 2026-04-18 08:19 | 33.72778 | 138.09483 | 37051 ft | 550 kts | 91° |
| 2026-04-18 08:20 | 33.72998 | 138.18670 | 37054 ft | 550 kts | 91° |
| 2026-04-18 08:20 | 33.73208 | 138.27785 | 37057 ft | 549 kts | 91° |
| 2026-04-18 08:21 | 33.73405 | 138.37007 | 37050 ft | 549 kts | 91° |
| 2026-04-18 08:21 | 33.73595 | 138.46138 | 37052 ft | 549 kts | 92° |
| 2026-04-18 08:22 | 33.73781 | 138.55304 | 37056 ft | 549 kts | 92° |
| 2026-04-18 08:22 | 33.73961 | 138.64476 | 37056 ft | 548 kts | 92° |
| 2026-04-18 08:23 | 33.74129 | 138.73627 | 37059 ft | 548 kts | 92° |
| 2026-04-18 08:23 | 33.74313 | 138.82777 | 37058 ft | 549 kts | 89° |
| 2026-04-18 08:24 | 33.75762 | 138.91752 | 37067 ft | 551 kts | 69° |
| 2026-04-18 08:24 | 33.79139 | 138.99948 | 37065 ft | 546 kts | 55° |
| 2026-04-18 08:25 | 33.83085 | 139.07783 | 37051 ft | 547 kts | 55° |
| 2026-04-18 08:25 | 33.87001 | 139.15634 | 37043 ft | 548 kts | 55° |
| 2026-04-18 08:26 | 33.90918 | 139.23500 | 37043 ft | 548 kts | 55° |
| 2026-04-18 08:26 | 33.94850 | 139.31387 | 37047 ft | 549 kts | 55° |
| 2026-04-18 08:27 | 33.98791 | 139.39313 | 36356 ft | 558 kts | 55° |
| 2026-04-18 08:27 | 34.00789 | 139.43335 | 35539 ft | 562 kts | 55° |
| 2026-04-18 08:27 | 34.02799 | 139.47389 | 34893 ft | 562 kts | 55° |
| 2026-04-18 08:27 | 34.04797 | 139.51426 | 34488 ft | 560 kts | 55° |
| 2026-04-18 08:28 | 34.06779 | 139.55389 | 33971 ft | 556 kts | 52° |
| 2026-04-18 08:28 | 34.09101 | 139.59129 | 33392 ft | 546 kts | 46° |
| 2026-04-18 08:28 | 34.11433 | 139.62649 | 32845 ft | 543 kts | 46° |
| 2026-04-18 08:28 | 34.13792 | 139.66198 | 32295 ft | 539 kts | 46° |
| 2026-04-18 08:29 | 34.16116 | 139.69692 | 31762 ft | 535 kts | 46° |
| 2026-04-18 08:29 | 34.18437 | 139.73182 | 31236 ft | 530 kts | 46° |
| 2026-04-18 08:29 | 34.20742 | 139.76655 | 30723 ft | 526 kts | 46° |
| 2026-04-18 08:29 | 34.23021 | 139.80098 | 30217 ft | 522 kts | 47° |
| 2026-04-18 08:30 | 34.25272 | 139.83503 | 29634 ft | 517 kts | 47° |
| 2026-04-18 08:30 | 34.27510 | 139.86893 | 29044 ft | 512 kts | 47° |
| 2026-04-18 08:30 | 34.29714 | 139.90238 | 28478 ft | 508 kts | 47° |
| 2026-04-18 08:30 | 34.31901 | 139.93562 | 27909 ft | 503 kts | 47° |
| 2026-04-18 08:31 | 34.34068 | 139.96855 | 27352 ft | 498 kts | 47° |
| 2026-04-18 08:31 | 34.36214 | 140.00117 | 26814 ft | 492 kts | 47° |
| 2026-04-18 08:31 | 34.38325 | 140.03328 | 26275 ft | 482 kts | 47° |
| 2026-04-18 08:31 | 34.40387 | 140.06472 | 25753 ft | 471 kts | 47° |
| 2026-04-18 08:32 | 34.42410 | 140.09562 | 25265 ft | 464 kts | 47° |
| 2026-04-18 08:32 | 34.44479 | 140.12529 | 24770 ft | 455 kts | 39° |
| 2026-04-18 08:32 | 34.46883 | 140.14806 | 24126 ft | 435 kts | 24° |
| 2026-04-18 08:32 | 34.49515 | 140.16478 | 23728 ft | 418 kts | 21° |
| 2026-04-18 08:33 | 34.52022 | 140.18036 | 23642 ft | 396 kts | 20° |
| 2026-04-18 08:33 | 34.54434 | 140.19538 | 23544 ft | 382 kts | 20° |
| 2026-04-18 08:33 | 34.56759 | 140.20981 | 23473 ft | 370 kts | 20° |
| 2026-04-18 08:33 | 34.59051 | 140.22398 | 23374 ft | 370 kts | 20° |
| 2026-04-18 08:34 | 34.61348 | 140.23811 | 23287 ft | 371 kts | 20° |
| 2026-04-18 08:34 | 34.63658 | 140.25237 | 23207 ft | 371 kts | 20° |
| 2026-04-18 08:34 | 34.65208 | 140.26197 | 23143 ft | 371 kts | 20° |
| 2026-04-18 08:34 | 34.67480 | 140.27608 | 23059 ft | 371 kts | 20° |
| 2026-04-18 08:35 | 34.69770 | 140.29032 | 22988 ft | 370 kts | 20° |
| 2026-04-18 08:35 | 34.72065 | 140.30463 | 22899 ft | 369 kts | 20° |
| 2026-04-18 08:35 | 34.74343 | 140.31884 | 22816 ft | 369 kts | 20° |
| 2026-04-18 08:35 | 34.76630 | 140.33309 | 22729 ft | 368 kts | 20° |
| 2026-04-18 08:36 | 34.78902 | 140.34726 | 22645 ft | 368 kts | 20° |
| 2026-04-18 08:36 | 34.81179 | 140.36150 | 22560 ft | 367 kts | 21° |
| 2026-04-18 08:36 | 34.83454 | 140.37574 | 22478 ft | 366 kts | 21° |
| 2026-04-18 08:36 | 34.85715 | 140.38987 | 22393 ft | 366 kts | 20° |
| 2026-04-18 08:37 | 34.87975 | 140.40395 | 22306 ft | 365 kts | 21° |
| 2026-04-18 08:37 | 34.90243 | 140.41810 | 22182 ft | 365 kts | 21° |
| 2026-04-18 08:37 | 34.92500 | 140.43220 | 21804 ft | 365 kts | 21° |
| 2026-04-18 08:37 | 34.94764 | 140.44636 | 21358 ft | 365 kts | 21° |
| 2026-04-18 08:38 | 34.96994 | 140.46032 | 20911 ft | 365 kts | 21° |
| 2026-04-18 08:38 | 34.99259 | 140.47451 | 20448 ft | 365 kts | 21° |
| 2026-04-18 08:38 | 35.01513 | 140.48868 | 19991 ft | 366 kts | 22° |
| 2026-04-18 08:38 | 35.03780 | 140.50296 | 19524 ft | 366 kts | 22° |
| 2026-04-18 08:39 | 35.06051 | 140.51725 | 19066 ft | 366 kts | 22° |
| 2026-04-18 08:39 | 35.08315 | 140.53147 | 18593 ft | 367 kts | 22° |
| 2026-04-18 08:39 | 35.10593 | 140.54577 | 18089 ft | 367 kts | 22° |
| 2026-04-18 08:39 | 35.12868 | 140.56004 | 17621 ft | 366 kts | 23° |
| 2026-04-18 08:40 | 35.15122 | 140.57421 | 17144 ft | 364 kts | 23° |
| 2026-04-18 08:40 | 35.17363 | 140.58836 | 16669 ft | 363 kts | 24° |
| 2026-04-18 08:40 | 35.19605 | 140.60252 | 16205 ft | 361 kts | 24° |
| 2026-04-18 08:40 | 35.21809 | 140.61640 | 15746 ft | 360 kts | 24° |
| 2026-04-18 08:41 | 35.24060 | 140.63059 | 15284 ft | 359 kts | 24° |
| 2026-04-18 08:41 | 35.26252 | 140.64443 | 14828 ft | 358 kts | 24° |
| 2026-04-18 08:41 | 35.28459 | 140.65838 | 14361 ft | 357 kts | 24° |
| 2026-04-18 08:41 | 35.30672 | 140.67239 | 13902 ft | 357 kts | 25° |
| 2026-04-18 08:42 | 35.32871 | 140.68629 | 13396 ft | 356 kts | 25° |
| 2026-04-18 08:42 | 35.35070 | 140.70020 | 12922 ft | 353 kts | 25° |
| 2026-04-18 08:42 | 35.37240 | 140.71398 | 12485 ft | 351 kts | 25° |
| 2026-04-18 08:42 | 35.39405 | 140.72772 | 12033 ft | 348 kts | 25° |
| 2026-04-18 08:43 | 35.41566 | 140.74144 | 11576 ft | 346 kts | 25° |
| 2026-04-18 08:43 | 35.43671 | 140.75486 | 11412 ft | 335 kts | 25° |
| 2026-04-18 08:43 | 35.45677 | 140.76765 | 11336 ft | 322 kts | 25° |
| 2026-04-18 08:43 | 35.47662 | 140.78031 | 11133 ft | 315 kts | 25° |
| 2026-04-18 08:44 | 35.49638 | 140.78949 | 11035 ft | 299 kts | 7° |
| 2026-04-18 08:44 | 35.51650 | 140.79029 | 10970 ft | 287 kts | 347° |
| 2026-04-18 08:44 | 35.53534 | 140.78302 | 10895 ft | 282 kts | 330° |
| 2026-04-18 08:44 | 35.55295 | 140.77239 | 10837 ft | 283 kts | 329° |
| 2026-04-18 08:45 | 35.57066 | 140.76172 | 10787 ft | 283 kts | 330° |
| 2026-04-18 08:45 | 35.58833 | 140.75107 | 10725 ft | 282 kts | 330° |
| 2026-04-18 08:45 | 35.60600 | 140.74040 | 10566 ft | 282 kts | 330° |
| 2026-04-18 08:45 | 35.62351 | 140.72983 | 10241 ft | 281 kts | 330° |
| 2026-04-18 08:46 | 35.64105 | 140.71923 | 10109 ft | 283 kts | 330° |
| 2026-04-18 08:46 | 35.65861 | 140.70861 | 10005 ft | 286 kts | 330° |
| 2026-04-18 08:46 | 35.67652 | 140.69776 | 9554 ft | 289 kts | 330° |
| 2026-04-18 08:46 | 35.69449 | 140.68690 | 9218 ft | 286 kts | 330° |
| 2026-04-18 08:47 | 35.71241 | 140.67605 | 8867 ft | 285 kts | 330° |
| 2026-04-18 08:47 | 35.73013 | 140.66529 | 8443 ft | 283 kts | 331° |
| 2026-04-18 08:47 | 35.74772 | 140.65463 | 8017 ft | 280 kts | 331° |
| 2026-04-18 08:47 | 35.76506 | 140.64411 | 7636 ft | 275 kts | 331° |
| 2026-04-18 08:48 | 35.78056 | 140.63096 | 7492 ft | 270 kts | 314° |
| 2026-04-18 08:48 | 35.79399 | 140.61494 | 7363 ft | 269 kts | 314° |
| 2026-04-18 08:48 | 35.80741 | 140.59888 | 7252 ft | 268 kts | 314° |
| 2026-04-18 08:48 | 35.82074 | 140.58289 | 7129 ft | 268 kts | 314° |
| 2026-04-18 08:49 | 35.83418 | 140.56677 | 7004 ft | 268 kts | 314° |
| 2026-04-18 08:49 | 35.84756 | 140.55070 | 6897 ft | 267 kts | 314° |
| 2026-04-18 08:49 | 35.86081 | 140.53475 | 6755 ft | 268 kts | 314° |
| 2026-04-18 08:49 | 35.87405 | 140.51879 | 6468 ft | 269 kts | 314° |
| 2026-04-18 08:50 | 35.88737 | 140.50274 | 6116 ft | 268 kts | 314° |
| 2026-04-18 08:50 | 35.90069 | 140.48671 | 5734 ft | 268 kts | 314° |
| 2026-04-18 08:50 | 35.91399 | 140.47068 | 5450 ft | 265 kts | 314° |
| 2026-04-18 08:50 | 35.92714 | 140.45482 | 5016 ft | 267 kts | 314° |
| 2026-04-18 08:51 | 35.94035 | 140.43887 | 4762 ft | 262 kts | 314° |
| 2026-04-18 08:51 | 35.95336 | 140.42314 | 4376 ft | 263 kts | 314° |
| 2026-04-18 08:51 | 35.96553 | 140.40634 | 4015 ft | 261 kts | 305° |
| 2026-04-18 08:51 | 35.97628 | 140.38834 | 3837 ft | 260 kts | 305° |
| 2026-04-18 08:52 | 35.98701 | 140.37056 | 3701 ft | 253 kts | 305° |
| 2026-04-18 08:52 | 35.99725 | 140.35354 | 3482 ft | 243 kts | 300° |
| 2026-04-18 08:52 | 36.00353 | 140.33518 | 3417 ft | 224 kts | 276° |
| 2026-04-18 08:52 | 36.00327 | 140.31671 | 3359 ft | 209 kts | 254° |
| 2026-04-18 08:53 | 35.99817 | 140.30049 | 3266 ft | 201 kts | 237° |
| 2026-04-18 08:53 | 35.98935 | 140.28732 | 3174 ft | 199 kts | 220° |
| 2026-04-18 08:53 | 35.97794 | 140.27839 | 3080 ft | 191 kts | 203° |
| 2026-04-18 08:53 | 35.96535 | 140.27427 | 2982 ft | 187 kts | 187° |
| 2026-04-18 08:54 | 35.95248 | 140.27489 | 2858 ft | 186 kts | 170° |
| 2026-04-18 08:54 | 35.94030 | 140.28018 | 2731 ft | 188 kts | 153° |
| 2026-04-18 08:54 | 35.92900 | 140.28829 | 2548 ft | 189 kts | 152° |
| 2026-04-18 08:54 | 35.91783 | 140.29647 | 2388 ft | 185 kts | 152° |
| 2026-04-18 08:55 | 35.90679 | 140.30450 | 2278 ft | 185 kts | 152° |
| 2026-04-18 08:55 | 35.89585 | 140.31244 | 2138 ft | 182 kts | 151° |
| 2026-04-18 08:55 | 35.88508 | 140.32026 | 1939 ft | 173 kts | 152° |
| 2026-04-18 08:55 | 35.87500 | 140.32757 | 1703 ft | 167 kts | 152° |
| 2026-04-18 08:56 | 35.86514 | 140.33471 | 1479 ft | 162 kts | 153° |
| 2026-04-18 08:56 | 35.85557 | 140.34164 | 1282 ft | 157 kts | 152° |
| 2026-04-18 08:56 | 35.84682 | 140.34799 | 1086 ft | 138 kts | 153° |
| 2026-04-18 08:56 | 35.83872 | 140.35389 | 939 ft | 131 kts | 151° |
| 2026-04-18 08:57 | 35.82299 | 140.36516 | 557 ft | 130 kts | 151° |
| 2026-04-18 08:57 | 35.81523 | 140.37072 | 530 ft | 129 kts | 150° |
| 2026-04-18 08:57 | 35.80739 | 140.37640 | 274 ft | 130 kts | 149° |
| 2026-04-18 08:58 | 35.79993 | 140.38187 | 151 ft | 118 kts | 149° |
| 2026-04-18 08:58 | 35.79410 | 140.38611 | 144 ft | 73 kts | 149° |
| 2026-04-18 08:58 | 35.79114 | 140.38826 | 145 ft | 27 kts | 150° |
| 2026-04-18 08:58 | 35.78997 | 140.38903 | 144 ft | 18 kts | 157° |
| 2026-04-18 08:59 | 35.78865 | 140.38936 | 142 ft | 19 kts | 176° |
| 2026-04-18 08:59 | 35.78733 | 140.38950 | 144 ft | 19 kts | 174° |
| 2026-04-18 08:59 | 35.78616 | 140.38965 | 144 ft | 16 kts | 173° |
| 2026-04-18 08:59 | 35.78547 | 140.38998 | 144 ft | 11 kts | 133° |
| 2026-04-18 09:00 | 35.78483 | 140.39078 | 144 ft | 15 kts | 136° |
| 2026-04-18 09:00 | 35.78382 | 140.39135 | 143 ft | 18 kts | 166° |
| 2026-04-18 09:00 | 35.78277 | 140.39167 | 143 ft | 14 kts | 166° |
| 2026-04-18 09:00 | 35.78195 | 140.39194 | 143 ft | 10 kts | 165° |
| 2026-04-18 09:01 | 35.78138 | 140.39182 | 144 ft | 10 kts | 220° |
| 2026-04-18 09:01 | 35.78097 | 140.39103 | 144 ft | 11 kts | 237° |
| 2026-04-18 09:01 | 35.78064 | 140.39037 | 143 ft | 10 kts | 241° |
| 2026-04-18 09:01 | 35.78055 | 140.38957 | 143 ft | 11 kts | 282° |
| 2026-04-18 09:02 | 35.78074 | 140.38879 | 143 ft | 9 kts | 288° |
| 2026-04-18 09:02 | 35.78079 | 140.38810 | 143 ft | 7 kts | 252° |
| 2026-04-18 09:02 | 35.78062 | 140.38778 | 143 ft | 1 kts | 226° |
| 2026-04-18 09:02 | 35.78050 | 140.38767 | 143 ft | 4 kts | 217° |
| 2026-04-18 09:03 | 35.78029 | 140.38741 | 143 ft | 4 kts | 239° |
| 2026-04-18 09:03 | 35.78023 | 140.38731 | 143 ft | 2 kts | 211° |
| 2026-04-18 09:03 | 35.78008 | 140.38719 | 143 ft | 3 kts | 216° |
| 2026-04-18 09:03 | 35.78001 | 140.38705 | 143 ft | 0 kts | 257° |
| 2026-04-18 09:04 | 35.78004 | 140.38698 | 143 ft | 1 kts | 295° |
| 2026-04-18 09:04 | 35.78016 | 140.38684 | 143 ft | 4 kts | 328° |
| 2026-04-18 09:04 | 35.78034 | 140.38671 | 143 ft | 3 kts | 328° |
| 2026-04-18 09:04 | 35.78046 | 140.38663 | 143 ft | 2 kts | 329° |
| 2026-04-18 09:05 | 35.78053 | 140.38657 | 143 ft | 1 kts | 329° |
| 2026-04-18 09:05 | 35.78059 | 140.38653 | 143 ft | 1 kts | 329° |